createdAt,value
2017-08-30T17:23:39.534Z,8.17
2017-08-30T17:26:07.072Z,8.30
2017-08-30T17:28:34.569Z,8.20
2017-08-30T17:31:02.113Z,8.07
2017-08-30T17:33:29.607Z,8.67
2017-08-30T17:35:57.149Z,8.43
2017-08-30T17:38:24.697Z,8.80
2017-08-30T17:40:52.259Z,8.30
2017-08-30T17:43:19.797Z,8.70
2017-08-30T17:45:47.309Z,8.30
2017-08-30T17:48:14.839Z,8.40
2017-08-30T17:50:42.385Z,7.90
2017-08-30T17:53:09.906Z,7.07
2017-08-30T17:55:37.397Z,7.07
2017-08-30T17:58:04.931Z,5.83
2017-08-30T18:00:32.429Z,5.60
2017-08-30T18:02:59.940Z,5.63
2017-08-30T18:05:27.531Z,6.53
2017-08-30T18:07:55.053Z,5.83
2017-08-30T18:10:22.558Z,6.67
2017-08-30T18:12:50.211Z,5.90
2017-08-30T18:15:17.766Z,6.07
2017-08-30T18:17:45.266Z,6.60
2017-08-30T18:20:12.882Z,7.43
2017-08-30T18:22:40.388Z,6.00
2017-08-30T18:25:08.010Z,7.47
2017-08-30T18:27:35.505Z,6.57
2017-08-30T18:30:03.056Z,6.90
2017-08-30T18:32:30.660Z,6.80
2017-08-30T18:34:58.327Z,7.07
2017-08-30T18:37:25.816Z,6.80
2017-08-30T18:39:53.326Z,6.30
2017-08-30T18:42:20.888Z,6.40
2017-08-30T18:44:48.410Z,6.50
2017-08-30T18:47:15.941Z,6.60
2017-08-30T18:49:43.441Z,6.30
2017-08-30T18:52:11.048Z,6.33
2017-08-30T18:54:38.598Z,8.03
2017-08-30T18:57:06.097Z,8.80
2017-08-30T18:59:33.598Z,6.90
2017-08-30T19:02:01.132Z,8.03
2017-08-30T19:04:28.748Z,7.33
2017-08-30T19:06:56.297Z,7.33
2017-08-30T19:09:23.793Z,6.43
2017-08-30T19:11:51.351Z,7.03
2017-08-30T19:14:18.848Z,6.67
2017-08-30T19:16:46.358Z,6.40
2017-08-30T19:19:13.973Z,5.87
2017-08-30T19:21:41.500Z,7.77
2017-08-30T19:24:09.036Z,6.77
2017-08-30T19:26:36.563Z,6.97
2017-08-30T19:29:04.104Z,6.97
2017-08-30T19:31:31.648Z,6.87
2017-08-30T19:33:59.149Z,5.90
2017-08-30T19:36:26.651Z,7.00
2017-08-30T19:38:54.185Z,6.17
2017-08-30T19:41:21.694Z,6.10
2017-08-30T19:43:49.256Z,6.70
2017-08-30T19:46:16.800Z,6.30
2017-08-30T19:48:44.318Z,5.90
2017-08-30T19:51:11.841Z,6.73
2017-08-30T19:53:39.385Z,6.07
2017-08-30T19:56:06.936Z,6.20
2017-08-30T19:58:34.501Z,6.90
2017-08-30T20:01:02.148Z,5.63
2017-08-30T20:03:29.657Z,5.27
2017-08-30T20:05:57.146Z,6.23
2017-08-30T20:08:24.700Z,5.97
2017-08-30T20:10:52.205Z,6.70
2017-08-30T20:13:20.539Z,5.50
2017-08-30T20:15:48.073Z,6.50
2017-08-30T20:18:15.578Z,5.50
2017-08-30T20:20:43.164Z,5.30
2017-08-30T20:23:10.674Z,5.50
2017-08-30T20:25:38.221Z,6.67
2017-08-30T20:28:05.762Z,6.33
2017-08-30T20:30:33.270Z,6.33
2017-08-30T20:33:00.813Z,5.50
2017-08-30T20:35:28.323Z,6.47
2017-08-30T20:37:55.943Z,6.77
2017-08-30T20:40:23.446Z,5.80
2017-08-30T20:42:50.942Z,5.90
2017-08-30T20:45:18.609Z,5.63
2017-08-30T20:47:46.119Z,6.13
2017-08-30T20:50:13.645Z,6.00
2017-08-30T20:52:41.149Z,5.53
2017-08-30T20:55:08.690Z,6.03
2017-08-30T20:57:36.275Z,6.57
2017-08-30T21:00:03.777Z,5.47
2017-08-30T21:02:31.265Z,6.57
2017-08-30T21:04:58.801Z,6.10
2017-08-30T21:07:26.310Z,6.20
2017-08-30T21:09:53.896Z,6.67
2017-08-30T21:12:21.420Z,6.30
2017-08-30T21:14:48.965Z,6.60
2017-08-30T21:17:16.477Z,6.93
2017-08-30T21:19:44.049Z,7.50
2017-08-30T21:22:11.582Z,6.97
2017-08-30T21:24:39.073Z,5.43
2017-08-30T21:27:06.631Z,6.30
2017-08-30T21:29:34.127Z,6.17
2017-08-30T21:32:01.627Z,6.13
2017-08-30T21:34:29.180Z,6.60
2017-08-30T21:36:56.679Z,6.30
2017-08-30T21:39:24.172Z,5.80
2017-08-30T21:41:51.716Z,5.83
2017-08-30T21:44:19.303Z,6.63
2017-08-30T21:46:46.815Z,6.27
2017-08-30T21:49:14.300Z,6.43
2017-08-30T21:51:41.848Z,6.00
2017-08-30T21:54:09.388Z,6.10
2017-08-30T21:56:37.739Z,6.70
2017-08-30T21:59:05.255Z,7.67
2017-08-30T22:01:32.765Z,6.77
2017-08-30T22:04:00.322Z,7.33
2017-08-30T22:06:27.833Z,6.37
2017-08-30T22:08:55.343Z,7.37
2017-08-30T22:11:22.874Z,7.67
2017-08-30T22:13:50.386Z,6.87
2017-08-30T22:16:17.885Z,7.70
2017-08-30T22:18:45.414Z,6.80
2017-08-30T22:21:12.984Z,6.97
2017-08-30T22:23:40.513Z,6.40
2017-08-30T22:26:08.019Z,6.00
2017-08-30T22:28:35.537Z,6.80
2017-08-30T22:31:03.046Z,5.30
2017-08-30T22:33:30.554Z,4.40
2017-08-30T22:35:58.144Z,4.80
2017-08-30T22:38:25.648Z,5.53
2017-08-30T22:40:53.253Z,5.30
2017-08-30T22:43:20.754Z,5.70
2017-08-30T22:45:48.253Z,4.57
2017-08-30T22:48:15.835Z,4.40
2017-08-30T22:50:43.333Z,4.60
2017-08-30T22:53:10.853Z,4.07
2017-08-30T22:55:38.402Z,4.30
2017-08-30T22:58:05.948Z,3.33
2017-08-30T23:00:33.504Z,4.20
2017-08-30T23:03:01.002Z,3.60
2017-08-30T23:05:28.632Z,3.40
2017-08-30T23:07:56.144Z,3.47
2017-08-30T23:10:23.740Z,3.57
2017-08-30T23:12:51.242Z,3.07
2017-08-30T23:15:18.775Z,3.47
2017-08-30T23:17:46.324Z,3.43
2017-08-30T23:20:13.825Z,3.33
2017-08-30T23:22:41.361Z,3.03
2017-08-30T23:25:08.877Z,4.03
2017-08-30T23:27:37.128Z,3.20
2017-08-30T23:30:04.653Z,3.63
2017-08-30T23:32:32.154Z,3.43
2017-08-30T23:34:59.745Z,3.63
2017-08-30T23:37:27.273Z,3.63
2017-08-30T23:39:54.768Z,3.20
2017-08-30T23:42:22.291Z,3.83
2017-08-30T23:44:49.872Z,4.30
2017-08-30T23:47:17.360Z,3.90
2017-08-30T23:49:44.891Z,3.40
2017-08-30T23:52:12.376Z,4.10
2017-08-30T23:54:39.888Z,3.30
2017-08-30T23:57:07.456Z,3.60
2017-08-30T23:59:35.032Z,3.77
